sensor_id;sensor_type;location;lat;lon;timestamp;pressure;altitude;pressure_sealevel;temperature
20730;BMP280;10526;50.850;12.928;2023-01-28T00:00:25;98603.16;;;0.15
20730;BMP280;10526;50.850;12.928;2023-01-28T00:04:48;98620.44;;;0.16
20730;BMP280;10526;50.850;12.928;2023-01-28T00:09:09;98610.13;;;0.20
20730;BMP280;10526;50.850;12.928;2023-01-28T00:13:33;98614.59;;;0.19
20730;BMP280;10526;50.850;12.928;2023-01-28T00:17:55;98608.72;;;0.22
20730;BMP280;10526;50.850;12.928;2023-01-28T00:22:17;98609.22;;;0.24
20730;BMP280;10526;50.850;12.928;2023-01-28T00:26:39;98615.06;;;0.30
20730;BMP280;10526;50.850;12.928;2023-01-28T00:31:21;98605.50;;;0.26
20730;BMP280;10526;50.850;12.928;2023-01-28T00:35:43;98610.13;;;0.20
20730;BMP280;10526;50.850;12.928;2023-01-28T00:40:06;98603.03;;;0.20
20730;BMP280;10526;50.850;12.928;2023-01-28T00:44:30;98603.66;;;0.17
20730;BMP280;10526;50.850;12.928;2023-01-28T00:48:56;98603.97;;;0.16
20730;BMP280;10526;50.850;12.928;2023-01-28T00:53:18;98606.53;;;0.07
20730;BMP280;10526;50.850;12.928;2023-01-28T00:57:40;98618.47;;;-0.09
20730;BMP280;10526;50.850;12.928;2023-01-28T01:02:02;98624.59;;;-0.22
20730;BMP280;10526;50.850;12.928;2023-01-28T01:06:39;98620.94;;;-0.35
20730;BMP280;10526;50.850;12.928;2023-01-28T01:11:03;98614.94;;;-0.36
20730;BMP280;10526;50.850;12.928;2023-01-28T01:15:25;98620.75;;;-0.39
20730;BMP280;10526;50.850;12.928;2023-01-28T01:19:47;98620.56;;;-0.42
20730;BMP280;10526;50.850;12.928;2023-01-28T01:24:09;98621.19;;;-0.45
20730;BMP280;10526;50.850;12.928;2023-01-28T01:28:32;98624.75;;;-0.41
20730;BMP280;10526;50.850;12.928;2023-01-28T01:32:55;98625.53;;;-0.41
20730;BMP280;10526;50.850;12.928;2023-01-28T01:37:18;98632.59;;;-0.41
20730;BMP280;10526;50.850;12.928;2023-01-28T01:41:40;98628.72;;;-0.44
20730;BMP280;10526;50.850;12.928;2023-01-28T01:46:03;98630.28;;;-0.43
20730;BMP280;10526;50.850;12.928;2023-01-28T01:50:42;98625.03;;;-0.43
20730;BMP280;10526;50.850;12.928;2023-01-28T01:55:11;98619.94;;;-0.48
20730;BMP280;10526;50.850;12.928;2023-01-28T01:59:35;98619.44;;;-0.50
20730;BMP280;10526;50.850;12.928;2023-01-28T02:04:41;98621.47;;;-0.47
20730;BMP280;10526;50.850;12.928;2023-01-28T02:09:25;98622.56;;;-0.48
20730;BMP280;10526;50.850;12.928;2023-01-28T02:13:51;98629.31;;;-0.47
20730;BMP280;10526;50.850;12.928;2023-01-28T02:18:17;98621.97;;;-0.45
20730;BMP280;10526;50.850;12.928;2023-01-28T02:32:33;98620.56;;;-0.42
20730;BMP280;10526;50.850;12.928;2023-01-28T02:41:32;98628.50;;;-0.34
20730;BMP280;10526;50.850;12.928;2023-01-28T02:45:55;98639.72;;;-0.33
20730;BMP280;10526;50.850;12.928;2023-01-28T02:50:48;98647.88;;;-0.35
20730;BMP280;10526;50.850;12.928;2023-01-28T02:56:29;98646.91;;;-0.39
20730;BMP280;10526;50.850;12.928;2023-01-28T03:09:45;98645.78;;;-0.46
20730;BMP280;10526;50.850;12.928;2023-01-28T03:14:09;98648.00;;;-0.40
20730;BMP280;10526;50.850;12.928;2023-01-28T03:18:51;98641.09;;;-0.36
20730;BMP280;10526;50.850;12.928;2023-01-28T03:24:12;98650.41;;;-0.30
20730;BMP280;10526;50.850;12.928;2023-01-28T03:29:07;98655.63;;;-0.30
20730;BMP280;10526;50.850;12.928;2023-01-28T03:33:51;98664.19;;;-0.38
20730;BMP280;10526;50.850;12.928;2023-01-28T03:38:33;98669.69;;;-0.39
20730;BMP280;10526;50.850;12.928;2023-01-28T03:43:05;98673.69;;;-0.42
20730;BMP280;10526;50.850;12.928;2023-01-28T03:47:30;98676.41;;;-0.47
20730;BMP280;10526;50.850;12.928;2023-01-28T03:51:55;98682.72;;;-0.48
20730;BMP280;10526;50.850;12.928;2023-01-28T03:56:17;98683.03;;;-0.50
20730;BMP280;10526;50.850;12.928;2023-01-28T04:00:47;98684.78;;;-0.59
20730;BMP280;10526;50.850;12.928;2023-01-28T04:05:10;98690.38;;;-0.52
20730;BMP280;10526;50.850;12.928;2023-01-28T04:09:41;98684.25;;;-0.47
20730;BMP280;10526;50.850;12.928;2023-01-28T04:14:36;98685.38;;;-0.62
20730;BMP280;10526;50.850;12.928;2023-01-28T04:19:02;98690.28;;;-0.69
20730;BMP280;10526;50.850;12.928;2023-01-28T04:23:26;98690.09;;;-0.73
20730;BMP280;10526;50.850;12.928;2023-01-28T04:27:50;98697.03;;;-0.68
20730;BMP280;10526;50.850;12.928;2023-01-28T04:32:15;98686.53;;;-0.77
20730;BMP280;10526;50.850;12.928;2023-01-28T04:36:55;98694.06;;;-0.75
20730;BMP280;10526;50.850;12.928;2023-01-28T04:41:37;98696.03;;;-0.81
20730;BMP280;10526;50.850;12.928;2023-01-28T04:46:08;98696.31;;;-0.82
20730;BMP280;10526;50.850;12.928;2023-01-28T04:50:36;98703.56;;;-0.93
20730;BMP280;10526;50.850;12.928;2023-01-28T04:55:13;98710.97;;;-0.95
20730;BMP280;10526;50.850;12.928;2023-01-28T04:59:36;98717.06;;;-1.00
20730;BMP280;10526;50.850;12.928;2023-01-28T05:03:59;98720.72;;;-1.01
20730;BMP280;10526;50.850;12.928;2023-01-28T05:08:29;98719.50;;;-1.03
20730;BMP280;10526;50.850;12.928;2023-01-28T05:12:51;98736.81;;;-1.07
20730;BMP280;10526;50.850;12.928;2023-01-28T05:17:13;98738.66;;;-1.22
20730;BMP280;10526;50.850;12.928;2023-01-28T05:21:35;98735.66;;;-1.29
20730;BMP280;10526;50.850;12.928;2023-01-28T05:26:02;98729.38;;;-1.28
20730;BMP280;10526;50.850;12.928;2023-01-28T05:30:25;98739.81;;;-1.28
20730;BMP280;10526;50.850;12.928;2023-01-28T05:34:47;98749.22;;;-1.27
20730;BMP280;10526;50.850;12.928;2023-01-28T05:39:09;98752.81;;;-1.23
20730;BMP280;10526;50.850;12.928;2023-01-28T05:43:31;98752.00;;;-1.23
20730;BMP280;10526;50.850;12.928;2023-01-28T05:48:14;98750.28;;;-1.28
20730;BMP280;10526;50.850;12.928;2023-01-28T05:53:09;98752.88;;;-1.28
20730;BMP280;10526;50.850;12.928;2023-01-28T05:57:34;98754.91;;;-1.25
20730;BMP280;10526;50.850;12.928;2023-01-28T06:01:57;98759.84;;;-1.23
20730;BMP280;10526;50.850;12.928;2023-01-28T06:06:20;98764.31;;;-1.24
20730;BMP280;10526;50.850;12.928;2023-01-28T06:10:42;98768.56;;;-1.28
20730;BMP280;10526;50.850;12.928;2023-01-28T06:15:05;98778.81;;;-1.31
20730;BMP280;10526;50.850;12.928;2023-01-28T06:19:51;98791.19;;;-1.37
20730;BMP280;10526;50.850;12.928;2023-01-28T06:24:13;98793.28;;;-1.53
20730;BMP280;10526;50.850;12.928;2023-01-28T06:28:35;98800.59;;;-1.68
20730;BMP280;10526;50.850;12.928;2023-01-28T06:32:57;98808.69;;;-1.84
20730;BMP280;10526;50.850;12.928;2023-01-28T06:37:19;98809.56;;;-1.94
20730;BMP280;10526;50.850;12.928;2023-01-28T06:41:41;98817.69;;;-1.95
20730;BMP280;10526;50.850;12.928;2023-01-28T06:46:04;98823.47;;;-1.98
20730;BMP280;10526;50.850;12.928;2023-01-28T06:50:27;98837.09;;;-2.01
20730;BMP280;10526;50.850;12.928;2023-01-28T06:54:49;98844.34;;;-2.17
20730;BMP280;10526;50.850;12.928;2023-01-28T06:59:11;98833.28;;;-2.28
20730;BMP280;10526;50.850;12.928;2023-01-28T07:03:35;98836.44;;;-2.31
20730;BMP280;10526;50.850;12.928;2023-01-28T07:07:57;98845.00;;;-2.25
20730;BMP280;10526;50.850;12.928;2023-01-28T07:12:20;98850.00;;;-2.29
20730;BMP280;10526;50.850;12.928;2023-01-28T07:16:42;98853.69;;;-2.35
20730;BMP280;10526;50.850;12.928;2023-01-28T07:21:04;98849.53;;;-2.36
20730;BMP280;10526;50.850;12.928;2023-01-28T07:25:26;98859.88;;;-2.26
20730;BMP280;10526;50.850;12.928;2023-01-28T07:29:48;98861.13;;;-2.23
20730;BMP280;10526;50.850;12.928;2023-01-28T07:34:11;98858.34;;;-2.27
20730;BMP280;10526;50.850;12.928;2023-01-28T07:38:33;98852.91;;;-2.30
20730;BMP280;10526;50.850;12.928;2023-01-28T07:42:55;98859.13;;;-2.31
20730;BMP280;10526;50.850;12.928;2023-01-28T07:47:17;98844.16;;;-2.21
20730;BMP280;10526;50.850;12.928;2023-01-28T07:51:40;98852.59;;;-2.29
20730;BMP280;10526;50.850;12.928;2023-01-28T07:56:02;98855.97;;;-2.28
20730;BMP280;10526;50.850;12.928;2023-01-28T08:00:29;98863.03;;;-2.29
20730;BMP280;10526;50.850;12.928;2023-01-28T08:04:51;98875.31;;;-2.29
20730;BMP280;10526;50.850;12.928;2023-01-28T08:09:14;98867.31;;;-2.38
20730;BMP280;10526;50.850;12.928;2023-01-28T08:13:36;98877.97;;;-2.34
20730;BMP280;10526;50.850;12.928;2023-01-28T08:17:59;98871.28;;;-2.22
20730;BMP280;10526;50.850;12.928;2023-01-28T08:22:26;98884.91;;;-2.06
20730;BMP280;10526;50.850;12.928;2023-01-28T08:26:48;98880.47;;;-2.05
20730;BMP280;10526;50.850;12.928;2023-01-28T08:31:10;98878.19;;;-1.93
20730;BMP280;10526;50.850;12.928;2023-01-28T08:35:33;98894.25;;;-1.81
20730;BMP280;10526;50.850;12.928;2023-01-28T08:39:55;98885.63;;;-1.81
20730;BMP280;10526;50.850;12.928;2023-01-28T08:44:17;98890.03;;;-1.77
20730;BMP280;10526;50.850;12.928;2023-01-28T08:48:40;98894.53;;;-1.63
20730;BMP280;10526;50.850;12.928;2023-01-28T08:53:16;98897.50;;;-1.37
20730;BMP280;10526;50.850;12.928;2023-01-28T08:57:39;98895.13;;;-1.34
20730;BMP280;10526;50.850;12.928;2023-01-28T09:02:00;98901.13;;;-1.52
20730;BMP280;10526;50.850;12.928;2023-01-28T09:06:23;98912.44;;;-1.57
20730;BMP280;10526;50.850;12.928;2023-01-28T09:10:45;98907.00;;;-1.60
20730;BMP280;10526;50.850;12.928;2023-01-28T09:15:08;98911.91;;;-1.40
20730;BMP280;10526;50.850;12.928;2023-01-28T09:19:30;98909.44;;;-1.31
20730;BMP280;10526;50.850;12.928;2023-01-28T09:23:52;98914.81;;;-1.41
20730;BMP280;10526;50.850;12.928;2023-01-28T09:28:16;98925.78;;;-1.58
20730;BMP280;10526;50.850;12.928;2023-01-28T09:32:38;98926.97;;;-1.51
20730;BMP280;10526;50.850;12.928;2023-01-28T09:37:01;98931.41;;;-1.51
20730;BMP280;10526;50.850;12.928;2023-01-28T09:41:42;98929.53;;;-1.46
20730;BMP280;10526;50.850;12.928;2023-01-28T09:46:11;98930.72;;;-1.38
20730;BMP280;10526;50.850;12.928;2023-01-28T09:50:39;98927.59;;;-1.21
20730;BMP280;10526;50.850;12.928;2023-01-28T09:59:37;98922.81;;;-0.86
20730;BMP280;10526;50.850;12.928;2023-01-28T10:09:36;98930.91;;;-0.69
20730;BMP280;10526;50.850;12.928;2023-01-28T10:14:38;98938.44;;;-0.67
20730;BMP280;10526;50.850;12.928;2023-01-28T10:19:24;98932.13;;;-0.66
20730;BMP280;10526;50.850;12.928;2023-01-28T10:24:17;98923.69;;;-0.08
20730;BMP280;10526;50.850;12.928;2023-01-28T10:28:53;98933.25;;;0.46
20730;BMP280;10526;50.850;12.928;2023-01-28T10:33:37;98936.22;;;0.76
20730;BMP280;10526;50.850;12.928;2023-01-28T10:38:05;98939.84;;;0.66
20730;BMP280;10526;50.850;12.928;2023-01-28T10:42:35;98936.69;;;0.33
20730;BMP280;10526;50.850;12.928;2023-01-28T10:47:15;98937.47;;;-0.16
20730;BMP280;10526;50.850;12.928;2023-01-28T10:51:42;98948.13;;;-0.40
20730;BMP280;10526;50.850;12.928;2023-01-28T11:00:37;98958.22;;;-0.34
20730;BMP280;10526;50.850;12.928;2023-01-28T11:05:19;98948.50;;;-0.75
20730;BMP280;10526;50.850;12.928;2023-01-28T11:09:49;98959.94;;;-0.84
20730;BMP280;10526;50.850;12.928;2023-01-28T11:14:26;98959.53;;;-0.78
20730;BMP280;10526;50.850;12.928;2023-01-28T11:18:54;98956.66;;;-0.62
20730;BMP280;10526;50.850;12.928;2023-01-28T11:23:31;98951.53;;;-0.40
20730;BMP280;10526;50.850;12.928;2023-01-28T11:27:55;98940.78;;;-0.38
20730;BMP280;10526;50.850;12.928;2023-01-28T11:32:20;98941.38;;;-0.41
20730;BMP280;10526;50.850;12.928;2023-01-28T11:37:00;98956.28;;;-0.42
20730;BMP280;10526;50.850;12.928;2023-01-28T11:41:37;98941.06;;;-0.40
20730;BMP280;10526;50.850;12.928;2023-01-28T11:50:44;98939.69;;;0.04
20730;BMP280;10526;50.850;12.928;2023-01-28T12:09:51;98925.13;;;0.12
20730;BMP280;10526;50.850;12.928;2023-01-28T12:20:00;98926.63;;;-0.37
20730;BMP280;10526;50.850;12.928;2023-01-28T12:29:55;98921.03;;;-0.31
20730;BMP280;10526;50.850;12.928;2023-01-28T12:34:33;98916.38;;;-0.61
20730;BMP280;10526;50.850;12.928;2023-01-28T12:44:23;98902.41;;;-0.57
20730;BMP280;10526;50.850;12.928;2023-01-28T12:53:54;98899.84;;;-1.03
20730;BMP280;10526;50.850;12.928;2023-01-28T12:58:31;98890.66;;;-1.01
20730;BMP280;10526;50.850;12.928;2023-01-28T13:08:11;98912.28;;;-0.67
20730;BMP280;10526;50.850;12.928;2023-01-28T13:12:38;98902.38;;;-0.70
20730;BMP280;10526;50.850;12.928;2023-01-28T13:17:36;98905.50;;;-0.55
20730;BMP280;10526;50.850;12.928;2023-01-28T13:26:54;98910.34;;;-0.48
20730;BMP280;10526;50.850;12.928;2023-01-28T13:31:20;98902.47;;;-0.62
20730;BMP280;10526;50.850;12.928;2023-01-28T13:35:53;98909.09;;;-0.64
20730;BMP280;10526;50.850;12.928;2023-01-28T13:40:27;98908.88;;;-0.54
20730;BMP280;10526;50.850;12.928;2023-01-28T13:44:50;98912.47;;;-0.50
20730;BMP280;10526;50.850;12.928;2023-01-28T13:49:17;98917.22;;;-0.52
20730;BMP280;10526;50.850;12.928;2023-01-28T14:17:54;98938.13;;;-0.66
20730;BMP280;10526;50.850;12.928;2023-01-28T14:22:21;98938.50;;;-0.86
20730;BMP280;10526;50.850;12.928;2023-01-28T14:31:36;98945.94;;;-1.07
20730;BMP280;10526;50.850;12.928;2023-01-28T14:36:00;98937.84;;;-0.92
20730;BMP280;10526;50.850;12.928;2023-01-28T14:40:22;98951.78;;;-0.83
20730;BMP280;10526;50.850;12.928;2023-01-28T14:44:47;98938.75;;;-1.02
20730;BMP280;10526;50.850;12.928;2023-01-28T14:59:29;98943.19;;;-1.16
20730;BMP280;10526;50.850;12.928;2023-01-28T15:03:55;98935.13;;;-1.19
20730;BMP280;10526;50.850;12.928;2023-01-28T15:08:21;98935.78;;;-1.28
20730;BMP280;10526;50.850;12.928;2023-01-28T15:12:51;98927.88;;;-1.23
20730;BMP280;10526;50.850;12.928;2023-01-28T15:17:25;98940.94;;;-1.23
20730;BMP280;10526;50.850;12.928;2023-01-28T15:21:48;98951.31;;;-1.17
20730;BMP280;10526;50.850;12.928;2023-01-28T15:26:17;98930.09;;;-1.30
20730;BMP280;10526;50.850;12.928;2023-01-28T15:30:45;98937.16;;;-1.49
20730;BMP280;10526;50.850;12.928;2023-01-28T15:35:12;98947.25;;;-1.61
20730;BMP280;10526;50.850;12.928;2023-01-28T15:39:35;98936.94;;;-1.72
20730;BMP280;10526;50.850;12.928;2023-01-28T15:43:57;98926.28;;;-1.75
20730;BMP280;10526;50.850;12.928;2023-01-28T15:48:20;98930.22;;;-1.78
20730;BMP280;10526;50.850;12.928;2023-01-28T15:52:42;98918.25;;;-1.79
20730;BMP280;10526;50.850;12.928;2023-01-28T15:57:30;98920.19;;;-1.89
20730;BMP280;10526;50.850;12.928;2023-01-28T16:02:21;98905.88;;;-1.92
20730;BMP280;10526;50.850;12.928;2023-01-28T16:06:44;98908.31;;;-1.77
20730;BMP280;10526;50.850;12.928;2023-01-28T16:11:08;98899.25;;;-1.65
20730;BMP280;10526;50.850;12.928;2023-01-28T16:15:38;98895.38;;;-1.68
20730;BMP280;10526;50.850;12.928;2023-01-28T16:20:34;98905.81;;;-1.87
20730;BMP280;10526;50.850;12.928;2023-01-28T16:24:59;98914.09;;;-1.80
20730;BMP280;10526;50.850;12.928;2023-01-28T16:29:58;98921.75;;;-1.70
20730;BMP280;10526;50.850;12.928;2023-01-28T16:34:58;98922.03;;;-1.71
20730;BMP280;10526;50.850;12.928;2023-01-28T16:40:56;98941.09;;;-1.71
20730;BMP280;10526;50.850;12.928;2023-01-28T16:46:11;98934.25;;;-1.66
20730;BMP280;10526;50.850;12.928;2023-01-28T16:50:34;98936.81;;;-1.61
20730;BMP280;10526;50.850;12.928;2023-01-28T16:54:59;98924.94;;;-1.73
20730;BMP280;10526;50.850;12.928;2023-01-28T16:59:21;98920.63;;;-1.82
20730;BMP280;10526;50.850;12.928;2023-01-28T17:03:43;98936.84;;;-1.85
20730;BMP280;10526;50.850;12.928;2023-01-28T17:08:06;98928.69;;;-1.79
20730;BMP280;10526;50.850;12.928;2023-01-28T17:12:28;98929.47;;;-1.78
20730;BMP280;10526;50.850;12.928;2023-01-28T17:16:50;98935.97;;;-1.76
20730;BMP280;10526;50.850;12.928;2023-01-28T17:21:27;98939.25;;;-1.70
20730;BMP280;10526;50.850;12.928;2023-01-28T17:25:49;98949.72;;;-1.70
20730;BMP280;10526;50.850;12.928;2023-01-28T17:30:12;98957.28;;;-1.68
20730;BMP280;10526;50.850;12.928;2023-01-28T17:34:34;98976.78;;;-1.85
20730;BMP280;10526;50.850;12.928;2023-01-28T17:38:57;98989.06;;;-1.85
20730;BMP280;10526;50.850;12.928;2023-01-28T17:43:19;98998.75;;;-1.86
20730;BMP280;10526;50.850;12.928;2023-01-28T17:47:41;99008.06;;;-1.80
20730;BMP280;10526;50.850;12.928;2023-01-28T17:52:03;98999.41;;;-1.75
20730;BMP280;10526;50.850;12.928;2023-01-28T17:56:28;98997.97;;;-1.86
20730;BMP280;10526;50.850;12.928;2023-01-28T18:00:50;98996.72;;;-1.94
20730;BMP280;10526;50.850;12.928;2023-01-28T18:05:12;98996.25;;;-1.96
20730;BMP280;10526;50.850;12.928;2023-01-28T18:09:40;98993.34;;;-1.95
20730;BMP280;10526;50.850;12.928;2023-01-28T18:14:03;98986.34;;;-1.99
20730;BMP280;10526;50.850;12.928;2023-01-28T18:18:26;98976.41;;;-1.97
20730;BMP280;10526;50.850;12.928;2023-01-28T18:22:48;98983.38;;;-1.92
20730;BMP280;10526;50.850;12.928;2023-01-28T18:27:10;98997.91;;;-1.81
20730;BMP280;10526;50.850;12.928;2023-01-28T18:31:32;98998.63;;;-1.76
20730;BMP280;10526;50.850;12.928;2023-01-28T18:35:55;98995.66;;;-1.69
20730;BMP280;10526;50.850;12.928;2023-01-28T18:40:16;98998.00;;;-1.67
20730;BMP280;10526;50.850;12.928;2023-01-28T18:44:39;98995.47;;;-1.73
20730;BMP280;10526;50.850;12.928;2023-01-28T18:49:01;98999.06;;;-1.68
20730;BMP280;10526;50.850;12.928;2023-01-28T18:53:23;99015.00;;;-1.70
20730;BMP280;10526;50.850;12.928;2023-01-28T18:57:46;99025.16;;;-1.68
20730;BMP280;10526;50.850;12.928;2023-01-28T19:02:12;99043.28;;;-1.77
20730;BMP280;10526;50.850;12.928;2023-01-28T19:06:35;99062.50;;;-1.68
20730;BMP280;10526;50.850;12.928;2023-01-28T19:10:57;99076.03;;;-1.66
20730;BMP280;10526;50.850;12.928;2023-01-28T19:15:20;99075.50;;;-1.63
20730;BMP280;10526;50.850;12.928;2023-01-28T19:19:42;99073.38;;;-1.61
20730;BMP280;10526;50.850;12.928;2023-01-28T19:24:06;99088.22;;;-1.56
20730;BMP280;10526;50.850;12.928;2023-01-28T19:28:32;99068.94;;;-1.60
20730;BMP280;10526;50.850;12.928;2023-01-28T19:32:54;99068.06;;;-1.75
20730;BMP280;10526;50.850;12.928;2023-01-28T19:37:16;99078.06;;;-1.82
20730;BMP280;10526;50.850;12.928;2023-01-28T19:41:39;99071.06;;;-1.86
20730;BMP280;10526;50.850;12.928;2023-01-28T19:46:04;99064.75;;;-1.80
20730;BMP280;10526;50.850;12.928;2023-01-28T19:50:27;99056.63;;;-1.79
20730;BMP280;10526;50.850;12.928;2023-01-28T19:54:49;99050.69;;;-1.84
20730;BMP280;10526;50.850;12.928;2023-01-28T19:59:11;99046.94;;;-1.78
20730;BMP280;10526;50.850;12.928;2023-01-28T20:03:36;99035.19;;;-1.76
20730;BMP280;10526;50.850;12.928;2023-01-28T20:07:59;99027.56;;;-1.72
20730;BMP280;10526;50.850;12.928;2023-01-28T20:12:21;99022.81;;;-1.70
20730;BMP280;10526;50.850;12.928;2023-01-28T20:16:43;99013.66;;;-1.67
20730;BMP280;10526;50.850;12.928;2023-01-28T20:21:05;99018.03;;;-1.63
20730;BMP280;10526;50.850;12.928;2023-01-28T20:25:27;99027.50;;;-1.67
20730;BMP280;10526;50.850;12.928;2023-01-28T20:29:50;99029.03;;;-1.66
20730;BMP280;10526;50.850;12.928;2023-01-28T20:34:16;99044.91;;;-1.62
20730;BMP280;10526;50.850;12.928;2023-01-28T20:38:44;99010.50;;;-1.64
20730;BMP280;10526;50.850;12.928;2023-01-28T20:43:08;99017.34;;;-1.68
20730;BMP280;10526;50.850;12.928;2023-01-28T20:47:30;99013.59;;;-1.62
20730;BMP280;10526;50.850;12.928;2023-01-28T20:51:52;99013.03;;;-1.59
20730;BMP280;10526;50.850;12.928;2023-01-28T20:56:18;99018.75;;;-1.57
20730;BMP280;10526;50.850;12.928;2023-01-28T21:00:40;99013.78;;;-1.59
20730;BMP280;10526;50.850;12.928;2023-01-28T21:05:04;99024.53;;;-1.60
20730;BMP280;10526;50.850;12.928;2023-01-28T21:09:26;99022.91;;;-1.56
20730;BMP280;10526;50.850;12.928;2023-01-28T21:13:49;99021.59;;;-1.54
20730;BMP280;10526;50.850;12.928;2023-01-28T21:18:11;99030.47;;;-1.55
20730;BMP280;10526;50.850;12.928;2023-01-28T21:22:33;99024.19;;;-1.54
20730;BMP280;10526;50.850;12.928;2023-01-28T21:26:55;99035.69;;;-1.55
20730;BMP280;10526;50.850;12.928;2023-01-28T21:31:21;99043.19;;;-1.48
20730;BMP280;10526;50.850;12.928;2023-01-28T21:35:43;99054.53;;;-1.39
20730;BMP280;10526;50.850;12.928;2023-01-28T21:40:06;99042.53;;;-1.40
20730;BMP280;10526;50.850;12.928;2023-01-28T21:44:29;99049.91;;;-1.42
20730;BMP280;10526;50.850;12.928;2023-01-28T21:49:00;99059.56;;;-1.42
20730;BMP280;10526;50.850;12.928;2023-01-28T21:53:22;99064.59;;;-1.46
20730;BMP280;10526;50.850;12.928;2023-01-28T21:57:44;99072.69;;;-1.48
20730;BMP280;10526;50.850;12.928;2023-01-28T22:02:12;99059.41;;;-1.51
20730;BMP280;10526;50.850;12.928;2023-01-28T22:06:35;99056.38;;;-1.58
20730;BMP280;10526;50.850;12.928;2023-01-28T22:11:02;99041.53;;;-1.63
20730;BMP280;10526;50.850;12.928;2023-01-28T22:15:24;99039.69;;;-1.62
20730;BMP280;10526;50.850;12.928;2023-01-28T22:19:47;99038.66;;;-1.61
20730;BMP280;10526;50.850;12.928;2023-01-28T22:24:14;99032.84;;;-1.58
20730;BMP280;10526;50.850;12.928;2023-01-28T22:28:36;99033.84;;;-1.54
20730;BMP280;10526;50.850;12.928;2023-01-28T22:32:58;99025.78;;;-1.58
20730;BMP280;10526;50.850;12.928;2023-01-28T22:37:20;99041.69;;;-1.54
20730;BMP280;10526;50.850;12.928;2023-01-28T22:41:43;99031.31;;;-1.59
20730;BMP280;10526;50.850;12.928;2023-01-28T22:46:06;99028.47;;;-1.63
20730;BMP280;10526;50.850;12.928;2023-01-28T22:50:28;99030.72;;;-1.75
20730;BMP280;10526;50.850;12.928;2023-01-28T22:54:50;99016.34;;;-1.73
20730;BMP280;10526;50.850;12.928;2023-01-28T22:59:12;99018.44;;;-1.75
20730;BMP280;10526;50.850;12.928;2023-01-28T23:03:35;99010.84;;;-1.71
20730;BMP280;10526;50.850;12.928;2023-01-28T23:07:57;99027.97;;;-1.84
20730;BMP280;10526;50.850;12.928;2023-01-28T23:12:30;99046.19;;;-1.79
20730;BMP280;10526;50.850;12.928;2023-01-28T23:16:53;99042.72;;;-1.74
20730;BMP280;10526;50.850;12.928;2023-01-28T23:21:35;99033.56;;;-1.72
20730;BMP280;10526;50.850;12.928;2023-01-28T23:26:16;99038.00;;;-1.72
20730;BMP280;10526;50.850;12.928;2023-01-28T23:30:38;99034.03;;;-1.70
20730;BMP280;10526;50.850;12.928;2023-01-28T23:35:01;99025.81;;;-1.77
20730;BMP280;10526;50.850;12.928;2023-01-28T23:39:23;99026.06;;;-1.78
20730;BMP280;10526;50.850;12.928;2023-01-28T23:43:45;99016.69;;;-1.79
20730;BMP280;10526;50.850;12.928;2023-01-28T23:48:07;99020.13;;;-1.84
20730;BMP280;10526;50.850;12.928;2023-01-28T23:52:29;99020.06;;;-1.79
20730;BMP280;10526;50.850;12.928;2023-01-28T23:56:51;99017.44;;;-1.79
